Record high temperature 37.7°C Record low temperature -23.5°C Record high gust 79.6 km/h Record high average 153.6 km/h Record daily rain 47.2 mm Record low windchill -31.0°C Record high barometer 1047.1 hPa Record low barometer 979.6 hPa
Daily high pressure 1044.7 hPa Daily low pressure 1040.5 hPa Daily low windchill -3.6°C Daily high heat index 3.4°C Daily high gust speed 11.8 kmh SSO Daily high average speed 7.6 kmh O
Wetterdaten
LETZTE AKTUALISIERUNG UM: 15:45 DATUM: Januar 21 2020, time of next update: 16:00
Aktuelles Wettermostly clear Aktuelle Temperatur 3.1°C (37.6°F), Apparent temp 1.6°C, Apparent temp solar 3.5°C
Höchsttemperatur (seit Mitternacht)3.4°C um: 14:01 Tiefsttemperatur (seit Mitternacht)-3.6°C um: 08:34
Windgeschwindigkeit (10 Minuten )3.3 kmh (1.8 kts) Windrichtung (Dir) (10 Minuten )SSE (166°)
Windchill Temperatur 3.1°C Windspitzen (letzte Std)11.8 kmh (6.4 kts) um: 14:45
Windspitzen (seit Mitternacht)11.8 kmh (6.4 kts) um: 14:43 Höchstes Windmittel / Minute (seit Mitternacht)7.6 kmh (4.1 kts) um: 12:00
Regenmenge (letzte Std)0.0 mm Regenmenge (seit Mitternacht)0.0 mm (0.00 in.)---
Regenmenge diesen Monat 10.2 mm (0.40 in.) Regenmenge seit Jahresbeginn 10.2 mm (0.40 in.)
Höchste Regenmenge pro Minute (letzte Std)0.0 mm/min Höchste Regenmenge pro Stunde (letzte 6 Std)0.0 mm/stunde
Regenmenge Gestern 0.0 mm Taupunkt -0.9°C (Wet Bulb :1.7°C )
Luftfeuchtigkeit 75 %, Humidex 0.7°C Aktueller Luftdruck (auf Meereshöhe bezogen)1040.5 hPa
Luftdrucktendenz -0.3 hPa (letzte Std) Trend (letzte 1 Std)gleichbleibend
Luftdrucktendenz (letzte 12 Std)-3.1 hPa Luftdrucktendenz (letzte 6 Std)-3.2 hPa
Maximum Soil temperature (seit Mitternacht) 2.8°C Minimum Soil temperature(seit Mitternacht)1.7°C
Current Soil temperature 2°C
Current Solar 100 W/m²
Maximum solar (seit Mitternacht) 390 W/m² Minimum solar(seit Mitternacht)0 W/m²
Current 03:52 hours of sunshine today, current sky: bewölkt
Sunshine hours for the year: 55:41 hrs Sunshine hours for the month: 55:41 hrs
Current evapotranspiration rate 0.4 mm per day. Yesterday's reading 0.5

Diese Seite wurde mit aktuellen Daten einer DAVIS VP Wetterstation erstellt. Drücken Sie bitte auf "Aktualisieren" oder "neu laden" um die neuesten Daten zu erhalten.


Animated web cam image


Weather report/warning/Metars

Stuttgart-Echterdingen, Germany (EDDS) 48-41N 009-13E 391M
Jan 21, 2020 - 09:20 AM EST / 2020.01.21 1420 UTC
Wind: Variable at 2 MPH (2 KT):0
Visibility: greater than 7 mile(s):0
Sky conditions: mostly clear
Temperature: 37 F (3 C)
Dew Point: 26 F (-3 C)
Relative Humidity: 64%
Pressure (altimeter): 30.65 in. Hg (1038 hPa)
ob: EDDS 211420Z VRB02KT 9999 FEW012 03/M03 Q1038 NOSIG
cycle: 14
Augsburg, Germany (EDMA) 48-26N 010-56E 463M
Jan 21, 2020 - 09:20 AM EST / 2020.01.21 1420 UTC
Wind: from the ESE (120 degrees) at 6 MPH (5 KT):0
Visibility: greater than 7 mile(s):0
Sky conditions: overcast
Temperature: 30 F (-1 C)
Windchill: 23 F (-5 C):1
Dew Point: 24 F (-4 C)
Relative Humidity: 80%
Pressure (altimeter): 30.68 in. Hg (1039 hPa)
ob: EDMA 211420Z 12005KT 9999 OVC011 M01/M04 Q1039
cycle: 14
Nuernberg, Germany (EDDN) 49-30N 011-03E 318M
Jan 21, 2020 - 09:20 AM EST / 2020.01.21 1420 UTC
Wind: from the SW (230 degrees) at 6 MPH (5 KT):0
Visibility: greater than 7 mile(s):0
Sky conditions: mostly clear
Temperature: 33 F (1 C)
Windchill: 26 F (-3 C):1
Dew Point: 26 F (-3 C)
Relative Humidity: 74%
Pressure (altimeter): 30.71 in. Hg (1040 hPa)
ob: EDDN 211420Z 23005KT 9999 FEW015 01/M03 Q1040 NOSIG
cycle: 14
Berlin-Tegel, Germany (EDDT) 52-34N 013-19E 37M
Jan 21, 2020 - 09:20 AM EST / 2020.01.21 1420 UTC
Wind: from the W (280 degrees) at 10 MPH (9 KT) (direction variable):0
Visibility: greater than 7 mile(s):0
Temperature: 42 F (6 C)
Dew Point: 33 F (1 C)
Relative Humidity: 70%
Pressure (altimeter): 30.62 in. Hg (1037 hPa)
ob: EDDT 211420Z 28009KT 250V310 CAVOK 06/01 Q1037 NOSIG
cycle: 14
Friedrichshafen, Germany (EDNY) 47-40N 009-31E 424M
Jan 21, 2020 - 09:20 AM EST / 2020.01.21 1420 UTC
Wind: from the N (360 degrees) at 5 MPH (4 KT):0
Visibility: greater than 7 mile(s):0
Temperature: 35 F (2 C)
Windchill: 30 F (-1 C):1
Dew Point: 26 F (-3 C)
Relative Humidity: 69%
Pressure (altimeter): 30.65 in. Hg (1038 hPa)
ob: EDNY 211420Z 36004KT CAVOK 02/M03 Q1038
cycle: 14
Hamburg-Finkenwerder, Germany (EDHI) 53-32N 009-50E 13M
Jan 21, 2020 - 09:20 AM EST / 2020.01.21 1420 UTC
Wind: from the WSW (240 degrees) at 15 MPH (13 KT):0
Visibility: 5 mile(s):0
Sky conditions: mostly cloudy
Temperature: 39 F (4 C)
Dew Point: 35 F (2 C)
Relative Humidity: 86%
Pressure (altimeter): 30.65 in. Hg (1038 hPa)
ob: EDHI 211420Z 24013KT 9000 FEW014 BKN016 04/02 Q1038
cycle: 14
Amsterdam Airport Schiphol, Netherlands (EHAM) 52-18N 004-46E -2M
Jan 21, 2020 - 09:25 AM EST / 2020.01.21 1425 UTC
Wind: from the SSW (210 degrees) at 9 MPH (8 KT) (direction variable):0
Visibility: 1 mile(s):0
Sky conditions: mostly cloudy
Weather: partial fog
Temperature: 39 F (4 C)
Dew Point: 39 F (4 C)
Relative Humidity: 100%
Pressure (altimeter): 30.71 in. Hg (1040 hPa)
ob: EHAM 211425Z 21008KT 180V240 1700 0700NW R18C/0900N R27/1600N R18R/0650N R06/P2000N PRFG SCT001 BKN002 04/04 Q1040 NOSIG
cycle: 14
Stockholm/Skavsta, Sweden (ESKN) 58-47N 016-55E
Jan 21, 2020 - 09:20 AM EST / 2020.01.21 1420 UTC
Wind: from the W (270 degrees) at 10 MPH (9 KT):0
Visibility: greater than 7 mile(s):0
Temperature: 46 F (8 C)
Dew Point: 39 F (4 C)
Relative Humidity: 75%
Pressure (altimeter): 30.09 in. Hg (1019 hPa)
ob: ESKN 211420Z 27009KT CAVOK 08/04 Q1019 R26/290195
cycle: 14
Ramstein, Germany (ETAR) 49-26N 007-36E 237M
Jan 21, 2020 - 08:56 AM EST / 2020.01.21 1356 UTC
Wind: from the NNE (030 degrees) at 6 MPH (5 KT):0
Visibility: greater than 7 mile(s):0
Sky conditions: clear
Temperature: 41.4 F (5.2 C)
Dew Point: 33.6 F (0.9 C)
Relative Humidity: 73%
Pressure (altimeter): 30.68 in. Hg (1038 hPa)
ob: ETAR 211356Z AUTO 03005KT 9999 CLR 05/01 A3068 RMK AO2 SLP408 T00520009 FZRANO 
cycle: 14
Laupheim, Germany (ETHL) 48-13N 009-55E 550M
Jan 21, 2020 - 09:20 AM EST / 2020.01.21 1420 UTC
Wind: from the E (080 degrees) at 5 MPH (4 KT):0
Visibility: 4 mile(s):0
Sky conditions: mostly cloudy
Temperature: 28 F (-2 C)
Windchill: 23 F (-5 C):1
Dew Point: 24 F (-4 C)
Relative Humidity: 86%
Pressure (altimeter): 30.65 in. Hg (1038 hPa)
ob: ETHL 211420Z 08004KT 7000 BKN007 M02/M04 Q1038 GRN YLO TEMPO GRN
cycle: 14
Gran Canaria - Canary Islands, Spain (GCLP) 27-56N 015-23W 47M
Jan 21, 2020 - 09:30 AM EST / 2020.01.21 1430 UTC
Wind: from the N (350 degrees) at 15 MPH (13 KT):0
Visibility: greater than 7 mile(s):0
Sky conditions: mostly cloudy
Temperature: 66 F (19 C)
Dew Point: 41 F (5 C)
Relative Humidity: 39%
Pressure (altimeter): 29.97 in. Hg (1015 hPa)
ob: GCLP 211430Z 35013KT 9999 FEW045 BKN065 19/05 Q1015 NOSIG
cycle: 14
Hurguada, Egypt (HEGN) 27-09N 033-43E 14M
Jan 21, 2020 - 09:00 AM EST / 2020.01.21 1400 UTC
Wind: from the NW (320 degrees) at 25 MPH (22 KT):0
Visibility: 1 mile(s):0
Weather: sand
Temperature: 64 F (18 C)
Dew Point: 35 F (2 C)
Relative Humidity: 34%
Pressure (altimeter): 30.12 in. Hg (1020 hPa)
ob: HEGN 211400Z 32022KT 2000 SA NSC 18/02 Q1020 NOSIG
cycle: 14
Chicago / Meigs, IL, United States (KCGX) 41-52N 087-36W
Jun 18, 2008 - 01:45 PM EDT / 2008.06.18 1745 UTC
Wind: from the NW (310 degrees) at 6 MPH (5 KT):0
Visibility: 15 mile(s):0
Sky conditions: overcast
Temperature: 57 F (14 C)
Dew Point: 51 F (11 C)
Relative Humidity: 82%
Pressure (altimeter): 29.89 in. Hg (1012 hPa)
ob: KCGX 181745Z 31005KT 15SM BKN014 OVC030 14/11 A2989
cycle: 18
Paris-Aeroport Charles De Gaulle, France (LFPG) 49-01N 002-32E 109M
Jan 21, 2020 - 09:30 AM EST / 2020.01.21 1430 UTC
Wind: from the N (010 degrees) at 8 MPH (7 KT):0
Visibility: greater than 7 mile(s):0
Temperature: 39 F (4 C)
Dew Point: 32 F (0 C)
Relative Humidity: 75%
Pressure (altimeter): 30.68 in. Hg (1039 hPa)
ob: LFPG 211430Z 01007KT CAVOK 04/M00 Q1039 NOSIG
cycle: 14
Hyeres, France (LFTH) 43-06N 006-09E 4M
Jan 21, 2020 - 09:30 AM EST / 2020.01.21 1430 UTC
Wind: from the E (080 degrees) at 22 MPH (19 KT) gusting to 35 MPH (30 KT):0
Visibility: greater than 7 mile(s):0
Temperature: 55 F (13 C)
Dew Point: 35 F (2 C)
Relative Humidity: 47%
Pressure (altimeter): 30.47 in. Hg (1032 hPa)
ob: LFTH 211430Z AUTO 08019G30KT CAVOK 13/02 Q1032 NOSIG
cycle: 14



Die Wetterdaten werden alle 2 Minuten gespeichert, aber die Datenübertragung findet jede Minute statt. Die beste Ansicht wird in einer Auflösung von 800 x 600 und "True colour" erzielt. Linie zeigt die relative Luftfeuchtigkeit an.

Drücken Sie bitte auf "Aktualisieren" in Ihrem Browser, um die aktuellsten Daten zu erhalten.

Klicken Sie hier, um eine Übersicht der Durchschnitts- u. Extremwerte für den Monat zu erhalten
Created by "Weather Display" software version 10.37S at this start time/date 10:01:18 20.01.2020